Terminal Aerodrome Forecast
Issued by NWS Detroit/Pontiac, MI

Home | Current Version | Previous Version | Text Only | Print | Product List | Glossary On
Versions: 1 2 3 4 5 6 7 8 9 10 11 12 13 14 15 16 17
000
FTUS43 KDTX 270547
TAFFNT
TAF
KFNT 270547Z 2706/2806 33003KT P6SM FEW025
     FM271400 25007KT P6SM SCT035
     FM272000 23006KT P6SM BKN040
     FM280200 21005KT P6SM SKC=

USA.gov is the U.S. government's official web portal to all federal, state and local government web resources and services.